createdAt,value
2019-01-23T00:00:31.211Z,0.10
2019-01-23T00:03:00.407Z,0.10
2019-01-23T00:05:29.604Z,0.10
2019-01-23T00:07:58.780Z,0.00
2019-01-23T00:10:28.314Z,0.00
2019-01-23T00:12:57.542Z,0.00
2019-01-23T00:15:26.737Z,0.10
2019-01-23T00:17:55.948Z,0.10
2019-01-23T00:20:25.137Z,0.10
2019-01-23T00:22:54.343Z,0.10
2019-01-23T00:25:23.544Z,0.10
2019-01-23T00:27:52.730Z,0.10
2019-01-23T00:30:21.927Z,0.10
2019-01-23T00:32:51.123Z,0.20
2019-01-23T00:35:20.303Z,0.20
2019-01-23T00:37:49.492Z,0.20
2019-01-23T00:40:18.670Z,0.20
2019-01-23T00:42:47.865Z,0.20
2019-01-23T00:45:17.041Z,0.10
2019-01-23T00:47:46.249Z,0.10
2019-01-23T00:50:15.780Z,0.10
2019-01-23T00:52:44.962Z,0.10
2019-01-23T00:55:18.080Z,0.10
2019-01-23T00:57:47.284Z,0.10
2019-01-23T01:00:25.256Z,0.10
2019-01-23T01:02:54.681Z,0.10
2019-01-23T01:05:24.126Z,0.10
2019-01-23T01:07:53.311Z,0.10
2019-01-23T01:10:22.483Z,0.00
2019-01-23T01:12:51.690Z,0.00
2019-01-23T01:15:20.946Z,0.00
2019-01-23T01:17:50.132Z,-0.10
2019-01-23T01:20:19.333Z,-0.10
2019-01-23T01:22:48.534Z,-0.10
2019-01-23T01:25:18.561Z,-0.10
2019-01-23T01:27:47.745Z,0.00
2019-01-23T01:30:24.816Z,-0.10
2019-01-23T01:32:54.000Z,-0.10
2019-01-23T01:35:23.215Z,-0.10
2019-01-23T01:37:52.397Z,-0.10
2019-01-23T01:40:21.617Z,-0.10
2019-01-23T01:42:50.876Z,-0.10
2019-01-23T01:45:20.240Z,-0.10
2019-01-23T01:47:49.430Z,-0.10
2019-01-23T01:50:19.790Z,-0.10
2019-01-23T01:52:48.958Z,-0.10
2019-01-23T01:55:18.175Z,-0.10
2019-01-23T01:57:47.374Z,-0.10
2019-01-23T02:00:24.084Z,-0.10
2019-01-23T02:02:53.283Z,-0.10
2019-01-23T02:05:23.407Z,0.00
2019-01-23T02:07:52.668Z,-0.10
2019-01-23T02:10:21.894Z,0.00
2019-01-23T02:12:51.240Z,0.00
2019-01-23T02:15:20.505Z,0.00
2019-01-23T02:17:49.743Z,0.00
2019-01-23T02:20:21.706Z,0.00
2019-01-23T02:22:51.364Z,0.00
2019-01-23T02:25:20.615Z,0.00
2019-01-23T02:27:49.976Z,0.00
2019-01-23T02:30:21.228Z,0.00
2019-01-23T02:32:50.395Z,0.00
2019-01-23T02:35:19.667Z,0.00
2019-01-23T02:37:48.858Z,0.00
2019-01-23T02:40:19.795Z,0.00
2019-01-23T02:42:48.970Z,0.00
2019-01-23T02:45:18.739Z,0.00
2019-01-23T02:47:47.926Z,0.00
2019-01-23T02:50:17.539Z,0.00
2019-01-23T02:52:46.723Z,0.00
2019-01-23T02:55:15.916Z,0.10
2019-01-23T02:57:45.111Z,0.10
2019-01-23T03:00:16.892Z,0.10
2019-01-23T03:02:46.668Z,0.20
2019-01-23T03:05:17.585Z,0.20
2019-01-23T03:07:47.144Z,0.20
2019-01-23T03:10:18.368Z,0.20
2019-01-23T03:12:47.560Z,0.20
2019-01-23T03:15:17.665Z,0.20
2019-01-23T03:17:47.823Z,0.20
2019-01-23T03:20:18.375Z,0.20
2019-01-23T03:22:47.629Z,0.20
2019-01-23T03:25:17.342Z,0.20
2019-01-23T03:27:46.524Z,0.30
2019-01-23T03:30:18.136Z,0.30
2019-01-23T03:32:47.526Z,0.30
2019-01-23T03:35:16.764Z,0.30
2019-01-23T03:37:46.015Z,0.30
2019-01-23T03:40:18.712Z,0.30
2019-01-23T03:42:48.216Z,0.30
2019-01-23T03:45:18.486Z,0.30
2019-01-23T03:47:47.662Z,0.30
2019-01-23T03:50:18.511Z,0.30
2019-01-23T03:52:47.819Z,0.30
2019-01-23T03:55:18.053Z,0.30
2019-01-23T03:57:47.288Z,0.30
2019-01-23T04:00:21.352Z,0.30
2019-01-23T04:02:51.761Z,0.20
2019-01-23T04:05:21.397Z,0.20
2019-01-23T04:07:50.667Z,0.20
2019-01-23T04:10:19.844Z,0.20
2019-01-23T04:12:49.050Z,0.20
2019-01-23T04:15:18.531Z,0.20
2019-01-23T04:17:47.734Z,0.20
2019-01-23T04:20:21.535Z,0.30
2019-01-23T04:22:50.888Z,0.30
2019-01-23T04:25:20.331Z,0.30
2019-01-23T04:27:49.548Z,0.30
2019-01-23T04:30:24.820Z,0.30
2019-01-23T04:32:54.232Z,0.30
2019-01-23T04:35:23.724Z,0.30
2019-01-23T04:37:52.911Z,0.30
2019-01-23T04:40:22.099Z,0.20
2019-01-23T04:42:52.244Z,0.20
2019-01-23T04:45:21.413Z,0.10
2019-01-23T04:47:50.603Z,0.10
2019-01-23T04:50:19.804Z,0.20
2019-01-23T04:52:50.612Z,0.10
2019-01-23T04:55:20.095Z,0.10
2019-01-23T04:57:49.306Z,0.10
2019-01-23T05:00:20.143Z,0.10
2019-01-23T05:02:50.545Z,0.10
2019-01-23T05:05:19.999Z,0.10
2019-01-23T05:07:49.160Z,0.10
2019-01-23T05:10:18.365Z,0.10
2019-01-23T05:12:47.522Z,0.20
2019-01-23T05:15:16.726Z,0.10
2019-01-23T05:17:45.931Z,0.10
2019-01-23T05:20:16.391Z,0.10
2019-01-23T05:22:45.570Z,0.10
2019-01-23T05:25:15.031Z,0.20
2019-01-23T05:27:44.488Z,0.20
2019-01-23T05:30:21.861Z,0.20
2019-01-23T05:32:51.389Z,0.20
2019-01-23T05:35:20.573Z,0.10
2019-01-23T05:37:49.830Z,0.10
2019-01-23T05:40:19.023Z,0.10
2019-01-23T05:42:48.218Z,0.00
2019-01-23T05:45:17.453Z,0.00
2019-01-23T05:47:46.657Z,-0.10
2019-01-23T05:50:17.673Z,0.00
2019-01-23T05:52:48.496Z,0.00
2019-01-23T05:55:17.732Z,-0.10
2019-01-23T05:57:46.916Z,-0.10
2019-01-23T06:00:18.103Z,0.00
2019-01-23T06:02:47.304Z,0.00
2019-01-23T06:05:35.937Z,0.00
2019-01-23T06:08:05.148Z,0.00
2019-01-23T06:10:34.363Z,0.10
2019-01-23T06:13:03.540Z,0.10
2019-01-23T06:15:32.709Z,0.10
2019-01-23T06:18:01.908Z,0.10
2019-01-23T06:20:31.112Z,0.20
2019-01-23T06:23:00.669Z,0.20
2019-01-23T06:25:29.872Z,0.20
2019-01-23T06:27:59.048Z,0.10
2019-01-23T06:30:28.220Z,0.10
2019-01-23T06:32:57.409Z,0.20
2019-01-23T06:35:27.809Z,0.10
2019-01-23T06:37:56.991Z,0.10
2019-01-23T06:40:26.175Z,0.10
2019-01-23T06:42:55.351Z,0.10
2019-01-23T06:45:24.533Z,0.10
2019-01-23T06:47:53.708Z,0.00
2019-01-23T06:50:22.994Z,0.00
2019-01-23T06:52:52.197Z,0.00
2019-01-23T06:55:21.436Z,0.00
2019-01-23T06:57:50.624Z,0.00
2019-01-23T07:00:22.040Z,0.00
2019-01-23T07:02:51.587Z,0.10
2019-01-23T07:05:20.763Z,0.10
2019-01-23T07:07:49.971Z,0.10
2019-01-23T07:10:21.504Z,0.10
2019-01-23T07:12:50.681Z,0.10
2019-01-23T07:15:20.482Z,0.10
2019-01-23T07:17:49.793Z,0.00
2019-01-23T07:20:21.000Z,0.00
2019-01-23T07:22:50.197Z,0.00
2019-01-23T07:25:19.444Z,-0.10
2019-01-23T07:27:48.639Z,-0.10
2019-01-23T07:30:24.257Z,-0.10
2019-01-23T07:32:51.564Z,-0.10
2019-01-23T07:35:20.772Z,-0.10
2019-01-23T07:37:49.974Z,-0.10
2019-01-23T07:40:19.285Z,-0.10
2019-01-23T07:42:49.291Z,-0.10
2019-01-23T07:45:21.457Z,-0.10
2019-01-23T07:47:50.965Z,-0.10
2019-01-23T07:50:20.496Z,-0.20
2019-01-23T07:52:49.769Z,-0.20
2019-01-23T07:55:20.337Z,-0.30
2019-01-23T07:57:49.511Z,-0.20
2019-01-23T08:00:23.928Z,-0.20
2019-01-23T08:02:53.294Z,-0.20
2019-01-23T08:05:24.416Z,-0.10
2019-01-23T08:07:53.959Z,-0.10
2019-01-23T08:10:23.589Z,0.00
2019-01-23T08:12:55.266Z,0.00
2019-01-23T08:15:29.827Z,0.10
2019-01-23T08:17:59.098Z,0.10
2019-01-23T08:20:29.597Z,0.00
2019-01-23T08:22:59.320Z,0.00
2019-01-23T08:25:28.537Z,0.00
2019-01-23T08:27:57.795Z,0.00
2019-01-23T08:30:27.665Z,0.10
2019-01-23T08:32:59.481Z,0.10
2019-01-23T08:35:28.954Z,0.20
2019-01-23T08:37:58.275Z,0.20
2019-01-23T08:40:27.494Z,0.20
2019-01-23T08:42:56.903Z,0.10
2019-01-23T08:45:26.300Z,0.10
2019-01-23T08:47:55.487Z,0.20
2019-01-23T08:50:33.851Z,0.20
2019-01-23T08:53:03.038Z,0.20
2019-01-23T08:55:33.890Z,0.20
2019-01-23T08:58:05.335Z,0.30
2019-01-23T09:00:34.636Z,0.20
2019-01-23T09:03:05.118Z,0.10
2019-01-23T09:05:34.311Z,0.10
2019-01-23T09:08:04.021Z,0.10
2019-01-23T09:10:33.235Z,0.00
2019-01-23T09:13:02.492Z,0.00
2019-01-23T09:15:31.671Z,0.10
2019-01-23T09:18:00.851Z,0.10
2019-01-23T09:20:30.034Z,-0.10
2019-01-23T09:22:59.222Z,-0.10
2019-01-23T09:25:28.407Z,-0.10
2019-01-23T09:27:57.592Z,-0.10
2019-01-23T09:30:33.208Z,-0.20
2019-01-23T09:33:14.524Z,-0.20
2019-01-23T09:36:06.475Z,-0.10
2019-01-23T09:38:47.414Z,-0.10
2019-01-23T09:41:25.256Z,-0.20
2019-01-23T09:44:20.700Z,-0.20
2019-01-23T09:47:24.864Z,-0.10
2019-01-23T09:50:32.280Z,-0.10
2019-01-23T09:53:19.527Z,-0.20
2019-01-23T09:55:48.725Z,-0.10
2019-01-23T09:58:17.915Z,0.00
2019-01-23T10:00:47.477Z,0.10
2019-01-23T10:03:22.809Z,0.30
2019-01-23T10:05:47.540Z,0.40
2019-01-23T10:08:16.734Z,0.50
2019-01-23T10:10:45.905Z,0.60
2019-01-23T10:13:15.076Z,0.70
2019-01-23T10:15:46.918Z,0.90
2019-01-23T10:18:16.084Z,1.00
2019-01-23T10:20:45.452Z,1.10
2019-01-23T10:23:14.640Z,1.10
2019-01-23T10:25:43.809Z,1.20
2019-01-23T10:28:12.995Z,1.30
2019-01-23T10:30:42.202Z,1.50
2019-01-23T10:33:11.394Z,1.60
2019-01-23T10:35:40.585Z,1.70
2019-01-23T10:38:09.759Z,1.70
2019-01-23T10:40:39.016Z,1.80
2019-01-23T10:43:08.254Z,1.90
2019-01-23T10:45:37.615Z,2.00
2019-01-23T10:48:06.877Z,1.90
2019-01-23T10:50:36.081Z,1.90
2019-01-23T10:53:05.239Z,1.80
2019-01-23T10:55:34.449Z,1.80
2019-01-23T10:58:04.959Z,1.80
2019-01-23T11:00:34.587Z,1.70
2019-01-23T11:03:09.944Z,1.70
2019-01-23T11:05:34.695Z,1.70
2019-01-23T11:08:04.153Z,1.70
2019-01-23T11:10:33.488Z,1.70
2019-01-23T11:13:02.676Z,1.70
2019-01-23T11:15:31.939Z,1.70
2019-01-23T11:18:01.145Z,1.70
2019-01-23T11:20:30.457Z,1.80
2019-01-23T11:22:59.636Z,1.80
2019-01-23T11:25:28.818Z,1.80
2019-01-23T11:27:57.984Z,1.80
2019-01-23T11:30:27.451Z,1.80
2019-01-23T11:32:57.624Z,1.70
2019-01-23T11:35:26.912Z,1.70
2019-01-23T11:37:56.083Z,1.70
2019-01-23T11:40:30.398Z,1.70
2019-01-23T11:42:59.591Z,1.60
2019-01-23T11:45:28.751Z,1.70
2019-01-23T11:47:59.021Z,1.80
2019-01-23T11:50:28.179Z,1.80
2019-01-23T11:52:57.372Z,1.80
2019-01-23T11:55:26.550Z,1.80
2019-01-23T11:57:55.734Z,1.80
2019-01-23T12:00:27.083Z,1.70
2019-01-23T12:02:56.284Z,1.70
2019-01-23T12:05:25.460Z,1.70
2019-01-23T12:07:54.645Z,1.60
2019-01-23T12:10:24.756Z,1.60
2019-01-23T12:12:53.936Z,1.60
2019-01-23T12:15:24.645Z,1.40
2019-01-23T12:17:53.826Z,1.40
2019-01-23T12:20:23.256Z,1.20
2019-01-23T12:22:52.613Z,1.20
2019-01-23T12:25:21.868Z,1.00
2019-01-23T12:27:51.071Z,1.00
2019-01-23T12:30:25.930Z,1.00
2019-01-23T12:32:55.547Z,1.10
2019-01-23T12:35:24.718Z,1.10
2019-01-23T12:37:53.906Z,1.20
2019-01-23T12:40:23.111Z,1.20
2019-01-23T12:42:52.264Z,1.30
2019-01-23T12:45:24.256Z,1.30
2019-01-23T12:47:53.449Z,1.40
2019-01-23T12:50:25.417Z,1.40
2019-01-23T12:52:54.604Z,1.40
2019-01-23T12:55:23.864Z,1.40
2019-01-23T12:57:53.074Z,1.30
2019-01-23T13:00:24.896Z,1.10
2019-01-23T13:02:54.441Z,0.90
2019-01-23T13:05:24.147Z,0.90
2019-01-23T13:07:53.316Z,0.80
2019-01-23T13:10:24.456Z,0.70
2019-01-23T13:12:54.771Z,0.40
2019-01-23T13:15:25.813Z,0.30
2019-01-23T13:17:55.976Z,0.40
2019-01-23T13:20:26.727Z,0.50
2019-01-23T13:22:56.104Z,0.40
2019-01-23T13:25:27.728Z,0.40
2019-01-23T13:27:58.934Z,0.40
2019-01-23T13:30:28.218Z,0.30
2019-01-23T13:32:57.408Z,0.30
2019-01-23T13:35:32.351Z,0.30
2019-01-23T13:38:01.890Z,0.30
2019-01-23T13:40:33.507Z,0.40
2019-01-23T13:43:02.954Z,0.30
2019-01-23T13:45:32.203Z,0.30
2019-01-23T13:48:01.524Z,0.30
2019-01-23T13:50:30.704Z,0.30
2019-01-23T13:52:59.926Z,0.30
2019-01-23T13:55:29.107Z,0.20
2019-01-23T13:57:59.350Z,0.10
2019-01-23T14:00:37.933Z,0.00
2019-01-23T14:03:07.771Z,0.00
2019-01-23T14:05:36.987Z,0.10
2019-01-23T14:08:07.145Z,0.20
2019-01-23T14:10:36.540Z,0.20
2019-01-23T14:13:05.940Z,0.20
2019-01-23T14:15:39.738Z,0.20
2019-01-23T14:18:09.180Z,0.30
2019-01-23T14:20:38.372Z,0.40
2019-01-23T14:23:07.674Z,0.50
2019-01-23T14:25:36.930Z,0.70
2019-01-23T14:28:06.175Z,0.80
2019-01-23T14:30:41.008Z,0.90
2019-01-23T14:33:10.184Z,0.90
2019-01-23T14:35:39.930Z,0.90
2019-01-23T14:38:10.639Z,0.90
2019-01-23T14:40:39.916Z,1.00
2019-01-23T14:43:09.186Z,0.80
2019-01-23T14:45:38.413Z,0.60
2019-01-23T14:48:07.641Z,0.40
2019-01-23T14:50:36.808Z,0.40
2019-01-23T14:53:06.105Z,0.30
2019-01-23T14:55:35.283Z,0.10
2019-01-23T14:58:04.902Z,0.00
2019-01-23T15:00:34.995Z,0.00
2019-01-23T15:03:04.328Z,0.00
2019-01-23T15:05:33.525Z,-0.10
2019-01-23T15:08:02.695Z,0.00
2019-01-23T15:10:32.944Z,0.00
2019-01-23T15:13:02.359Z,0.00
2019-01-23T15:15:31.579Z,0.00
2019-01-23T15:18:00.968Z,0.10
2019-01-23T15:20:33.388Z,0.20
2019-01-23T15:23:03.545Z,0.20
2019-01-23T15:25:33.991Z,0.30
2019-01-23T15:28:03.236Z,0.20
2019-01-23T15:30:32.417Z,0.00
2019-01-23T15:33:09.095Z,-0.10
2019-01-23T15:35:35.163Z,-0.20
2019-01-23T15:38:04.415Z,-0.30
2019-01-23T15:40:34.647Z,-0.30
2019-01-23T15:43:03.893Z,-0.30
2019-01-23T15:45:33.099Z,-0.20
2019-01-23T15:48:02.459Z,-0.30
2019-01-23T15:50:31.657Z,-0.40
2019-01-23T15:53:00.881Z,-0.30
2019-01-23T15:55:30.083Z,-0.20
2019-01-23T15:57:59.264Z,-0.20
2019-01-23T16:00:32.477Z,-0.20
2019-01-23T16:03:02.110Z,-0.20
2019-01-23T16:05:32.161Z,-0.20
2019-01-23T16:08:01.351Z,-0.20
2019-01-23T16:10:30.756Z,-0.20
2019-01-23T16:13:02.989Z,-0.30
2019-01-23T16:15:33.916Z,-0.30
2019-01-23T16:18:03.268Z,-0.30
2019-01-23T16:20:32.533Z,-0.30
2019-01-23T16:23:01.888Z,-0.30
2019-01-23T16:25:31.084Z,-0.40
2019-01-23T16:28:00.296Z,-0.40
2019-01-23T16:30:32.913Z,-0.30
2019-01-23T16:33:03.083Z,-0.20
2019-01-23T16:35:38.587Z,-0.10
2019-01-23T16:38:06.680Z,-0.20
2019-01-23T16:40:37.609Z,-0.20
2019-01-23T16:45:56.643Z,-0.20
2019-01-23T16:48:25.855Z,-0.20
2019-01-23T16:50:59.572Z,-0.20
2019-01-23T16:53:28.891Z,-0.30
2019-01-23T16:56:00.203Z,-0.40
2019-01-23T16:58:29.417Z,-0.40
2019-01-23T17:00:59.599Z,-0.40
2019-01-23T17:03:30.169Z,-0.40
2019-01-23T17:05:59.355Z,-0.40
2019-01-23T17:08:28.583Z,-0.30
2019-01-23T17:10:58.164Z,-0.40
2019-01-23T17:13:27.388Z,-0.30
2019-01-23T17:18:46.964Z,-0.30
2019-01-23T17:21:19.040Z,-0.30
2019-01-23T17:23:52.225Z,-0.30
2019-01-23T17:26:22.976Z,-0.30
2019-01-23T17:28:54.876Z,-0.30
2019-01-23T17:31:24.116Z,-0.30
2019-01-23T17:33:55.307Z,-0.20
2019-01-23T17:36:24.536Z,-0.20
2019-01-23T17:38:53.747Z,-0.20
2019-01-23T17:41:22.943Z,-0.20
2019-01-23T17:43:53.834Z,-0.20
2019-01-23T17:46:23.046Z,-0.10
2019-01-23T17:48:53.254Z,-0.10
2019-01-23T17:51:25.386Z,0.00
2019-01-23T17:53:55.915Z,0.00
2019-01-23T17:56:25.201Z,0.00
2019-01-23T17:58:54.404Z,0.00
2019-01-23T18:01:23.608Z,0.00
2019-01-23T18:03:52.801Z,0.00
2019-01-23T18:06:22.016Z,0.00
2019-01-23T18:08:51.206Z,0.00
2019-01-23T18:11:20.766Z,0.10
2019-01-23T18:13:50.567Z,0.00
2019-01-23T18:16:20.189Z,0.00
2019-01-23T18:18:49.367Z,-0.10
2019-01-23T18:21:18.573Z,-0.10
2019-01-23T18:23:47.755Z,-0.20
2019-01-23T18:26:17.311Z,-0.20
2019-01-23T18:28:46.487Z,-0.20
2019-01-23T18:31:18.985Z,-0.20
2019-01-23T18:34:02.295Z,-0.20
2019-01-23T18:36:50.053Z,-0.20
2019-01-23T18:39:25.337Z,-0.20
2019-01-23T18:41:58.100Z,-0.20
2019-01-23T18:44:39.436Z,-0.20
2019-01-23T18:47:26.919Z,-0.20
2019-01-23T18:50:08.558Z,-0.20
2019-01-23T18:52:37.775Z,-0.20
2019-01-23T18:55:10.196Z,-0.30
2019-01-23T18:57:39.402Z,-0.30
2019-01-23T19:00:11.748Z,-0.20
2019-01-23T19:02:41.216Z,-0.20
2019-01-23T19:05:11.957Z,-0.20
2019-01-23T19:07:41.160Z,-0.20
2019-01-23T19:10:13.915Z,-0.10
2019-01-23T19:12:43.486Z,0.00
2019-01-23T19:15:16.240Z,0.00
2019-01-23T19:17:45.447Z,-0.10
2019-01-23T19:20:19.935Z,0.00
2019-01-23T19:22:49.168Z,0.00
2019-01-23T19:25:18.354Z,0.10
2019-01-23T19:27:47.554Z,0.10
2019-01-23T19:30:21.576Z,0.10
2019-01-23T19:32:50.784Z,0.10
2019-01-23T19:35:19.976Z,0.00
2019-01-23T19:37:49.243Z,-0.10
2019-01-23T19:40:18.510Z,-0.10
2019-01-23T19:42:47.687Z,0.00
2019-01-23T19:45:19.762Z,0.00
2019-01-23T19:47:48.992Z,0.00
2019-01-23T19:50:19.659Z,0.10
2019-01-23T19:52:48.996Z,0.00
2019-01-23T19:55:18.464Z,0.10
2019-01-23T19:57:47.659Z,0.10
2019-01-23T20:00:19.317Z,0.20
2019-01-23T20:02:49.542Z,0.10
2019-01-23T20:05:22.103Z,0.20
2019-01-23T20:07:51.344Z,0.10
2019-01-23T20:10:22.976Z,0.10
2019-01-23T20:12:52.169Z,0.10
2019-01-23T20:15:21.609Z,0.10
2019-01-23T20:17:52.740Z,0.10
2019-01-23T20:20:21.928Z,0.10
2019-01-23T20:22:51.141Z,0.20
2019-01-23T20:25:23.585Z,0.30
2019-01-23T20:27:52.980Z,0.20
2019-01-23T20:30:30.817Z,0.20
2019-01-23T20:33:00.014Z,0.30
2019-01-23T20:35:29.219Z,0.30
2019-01-23T20:37:59.465Z,0.30
2019-01-23T20:40:28.648Z,0.40
2019-01-23T20:42:57.925Z,0.40
2019-01-23T20:45:27.114Z,0.40
2019-01-23T20:47:56.326Z,0.40
2019-01-23T20:50:27.854Z,0.40
2019-01-23T20:52:57.287Z,0.30
2019-01-23T20:55:26.480Z,0.40
2019-01-23T20:57:58.648Z,0.40
2019-01-23T21:00:31.133Z,0.50
2019-01-23T21:03:00.317Z,0.60
2019-01-23T21:05:29.508Z,0.60
2019-01-23T21:07:58.684Z,0.60
2019-01-23T21:10:28.242Z,0.60
2019-01-23T21:12:57.747Z,0.60
2019-01-23T21:15:30.618Z,0.50
2019-01-23T21:17:59.817Z,0.50
2019-01-23T21:20:29.930Z,0.50
2019-01-23T21:22:59.129Z,0.40
2019-01-23T21:25:28.308Z,0.40
2019-01-23T21:27:57.515Z,0.40
2019-01-23T21:30:27.829Z,0.40
2019-01-23T21:32:57.016Z,0.40
2019-01-23T21:35:26.483Z,0.40
2019-01-23T21:37:55.682Z,0.30
2019-01-23T21:40:27.759Z,0.30
2019-01-23T21:42:56.998Z,0.30
2019-01-23T21:45:26.194Z,0.30
2019-01-23T21:47:55.378Z,0.40
2019-01-23T21:50:25.640Z,0.40
2019-01-23T21:52:55.474Z,0.50
2019-01-23T21:55:26.081Z,0.50
2019-01-23T21:57:55.276Z,0.50
2019-01-23T22:00:32.847Z,0.50
2019-01-23T22:03:03.378Z,0.60
2019-01-23T22:05:32.572Z,0.60
2019-01-23T22:08:01.744Z,0.70
2019-01-23T22:10:30.925Z,0.70
2019-01-23T22:13:00.124Z,0.80
2019-01-23T22:15:31.267Z,0.70
2019-01-23T22:18:00.485Z,0.70
2019-01-23T22:20:29.735Z,0.70
2019-01-23T22:22:58.895Z,0.70
2019-01-23T22:25:28.386Z,0.80
2019-01-23T22:27:58.628Z,0.80
2019-01-23T22:30:34.389Z,0.90
2019-01-23T22:33:03.646Z,1.00
2019-01-23T22:35:32.832Z,1.10
2019-01-23T22:38:02.029Z,1.10
2019-01-23T22:40:32.136Z,1.10
2019-01-23T22:43:01.329Z,1.10
2019-01-23T22:45:30.487Z,1.10
2019-01-23T22:47:59.684Z,1.20
2019-01-23T22:50:29.015Z,1.20
2019-01-23T22:52:58.191Z,1.20
2019-01-23T22:55:27.409Z,1.20
2019-01-23T22:57:56.580Z,1.20
2019-01-23T23:00:30.735Z,1.20
2019-01-23T23:03:01.184Z,1.20
2019-01-23T23:05:30.367Z,1.20
2019-01-23T23:07:59.558Z,1.10
2019-01-23T23:10:28.820Z,1.10
2019-01-23T23:12:58.005Z,1.00
2019-01-23T23:15:27.168Z,1.00
2019-01-23T23:17:56.423Z,1.10
2019-01-23T23:20:25.588Z,1.10
2019-01-23T23:22:54.785Z,1.10
2019-01-23T23:25:23.954Z,1.20
2019-01-23T23:27:53.138Z,1.20
2019-01-23T23:30:24.328Z,1.30
2019-01-23T23:32:53.508Z,1.30
2019-01-23T23:35:22.760Z,1.30
2019-01-23T23:37:52.160Z,1.30
2019-01-23T23:40:21.395Z,1.30
2019-01-23T23:42:50.584Z,1.20
2019-01-23T23:45:20.010Z,1.20
2019-01-23T23:47:49.213Z,1.10
2019-01-23T23:50:18.475Z,1.00
2019-01-23T23:52:47.760Z,0.80
2019-01-23T23:55:17.314Z,0.70
2019-01-23T23:57:46.549Z,0.60
